createdAt,value
2023-01-10T00:01:43.669Z,6.07
2023-01-10T00:04:11.700Z,3.95
2023-01-10T00:06:40.019Z,6.53
2023-01-10T00:09:11.481Z,4.47
2023-01-10T00:11:57.199Z,6.03
2023-01-10T00:14:25.231Z,5.80
2023-01-10T00:16:53.083Z,6.45
2023-01-10T00:19:21.411Z,6.32
2023-01-10T00:21:49.684Z,6.07
2023-01-10T00:24:20.040Z,4.70
2023-01-10T00:26:52.758Z,5.85
2023-01-10T00:29:21.884Z,4.85
2023-01-10T00:31:50.038Z,4.63
2023-01-10T00:34:18.319Z,5.18
2023-01-10T00:36:48.040Z,5.60
2023-01-10T00:39:18.154Z,5.95
2023-01-10T00:42:05.483Z,4.95
2023-01-10T00:44:34.149Z,6.45
2023-01-10T00:47:02.185Z,7.05
2023-01-10T00:49:30.530Z,3.70
2023-01-10T00:51:59.698Z,5.40
2023-01-10T00:54:27.824Z,5.05
2023-01-10T00:56:57.063Z,5.55
2023-01-10T00:59:25.355Z,5.13
2023-01-10T01:01:53.806Z,4.82
2023-01-10T01:04:21.773Z,6.32
2023-01-10T01:06:50.855Z,6.57
2023-01-10T01:09:19.208Z,8.00
2023-01-10T01:11:47.955Z,5.75
2023-01-10T01:14:17.697Z,7.53
2023-01-10T01:16:45.762Z,5.35
2023-01-10T01:19:13.820Z,6.57
2023-01-10T01:21:41.832Z,7.10
2023-01-10T01:24:11.165Z,8.43
2023-01-10T01:26:40.266Z,7.13
2023-01-10T01:29:08.299Z,7.15
2023-01-10T01:31:37.716Z,6.50
2023-01-10T01:34:06.960Z,9.40
2023-01-10T01:36:34.834Z,7.45
2023-01-10T01:39:03.856Z,7.40
2023-01-10T01:41:49.639Z,7.75
2023-01-10T01:44:19.159Z,9.40
2023-01-10T01:46:54.597Z,7.10
2023-01-10T01:49:25.731Z,4.95
2023-01-10T01:52:01.140Z,7.65
2023-01-10T01:54:33.039Z,6.70
2023-01-10T01:57:05.594Z,7.78
2023-01-10T01:59:37.865Z,7.85
2023-01-10T02:02:13.227Z,7.10
2023-01-10T02:04:47.812Z,7.72
2023-01-10T02:07:16.671Z,8.88
2023-01-10T02:09:50.153Z,8.13
2023-01-10T02:12:19.064Z,7.93
2023-01-10T02:14:50.803Z,6.07
2023-01-10T02:17:20.621Z,8.43
2023-01-10T02:19:53.257Z,6.07
2023-01-10T02:23:02.101Z,7.13
2023-01-10T02:26:01.039Z,5.75
2023-01-10T02:28:55.726Z,6.68
2023-01-10T02:32:07.825Z,6.97
2023-01-10T02:34:46.345Z,8.25
2023-01-10T02:37:21.386Z,8.15
2023-01-10T02:39:57.040Z,5.60
2023-01-10T02:42:30.802Z,7.28
2023-01-10T02:45:06.639Z,7.68
2023-01-10T02:47:40.574Z,4.47
2023-01-10T02:50:43.091Z,8.50
2023-01-10T02:53:13.066Z,5.43
2023-01-10T02:55:59.237Z,5.60
2023-01-10T02:58:42.230Z,8.45
2023-01-10T03:01:18.826Z,6.85
2023-01-10T03:03:58.116Z,7.57
2023-01-10T03:06:36.283Z,7.90
2023-01-10T03:09:12.284Z,8.00
2023-01-10T03:11:42.726Z,6.85
2023-01-10T03:14:16.610Z,9.90
2023-01-10T03:16:50.629Z,8.48
2023-01-10T03:19:24.156Z,7.30
2023-01-10T03:21:57.486Z,8.13
2023-01-10T03:24:31.551Z,7.88
2023-01-10T03:27:05.401Z,9.40
2023-01-10T03:29:40.647Z,6.43
2023-01-10T03:32:13.835Z,6.80
2023-01-10T03:34:43.174Z,8.40
2023-01-10T03:37:19.291Z,7.60
2023-01-10T03:39:58.653Z,7.53
2023-01-10T03:42:57.272Z,5.97
2023-01-10T03:45:30.691Z,6.20
2023-01-10T03:48:03.467Z,7.93
2023-01-10T03:50:35.883Z,7.45
2023-01-10T03:53:05.056Z,7.50
2023-01-10T03:55:35.115Z,8.75
2023-01-10T03:58:02.955Z,7.68
2023-01-10T04:00:31.401Z,5.53
2023-01-10T04:02:59.366Z,7.00
2023-01-10T04:05:28.324Z,6.65
2023-01-10T04:07:58.142Z,7.38
2023-01-10T04:10:27.352Z,6.63
2023-01-10T04:12:55.902Z,8.60
2023-01-10T04:15:24.163Z,9.00
2023-01-10T04:17:52.319Z,9.48
2023-01-10T04:20:20.882Z,7.93
2023-01-10T04:22:51.350Z,8.07
2023-01-10T04:25:21.549Z,8.63
2023-01-10T04:27:50.615Z,6.97
2023-01-10T04:30:19.544Z,7.28
2023-01-10T04:32:48.366Z,6.45
2023-01-10T04:35:16.827Z,8.65
2023-01-10T04:37:44.923Z,7.82
2023-01-10T04:40:17.297Z,8.55
2023-01-10T04:42:46.825Z,7.13
2023-01-10T04:45:17.881Z,9.25
2023-01-10T04:47:50.896Z,8.93
2023-01-10T04:50:19.445Z,6.63
2023-01-10T04:52:47.376Z,7.95
2023-01-10T04:55:15.497Z,7.97
2023-01-10T04:57:43.911Z,7.80
2023-01-10T05:00:14.540Z,7.40
2023-01-10T05:02:44.749Z,7.40
2023-01-10T05:05:13.494Z,8.50
2023-01-10T05:07:42.198Z,7.60
2023-01-10T05:10:11.993Z,7.35
2023-01-10T05:12:40.333Z,6.53
2023-01-10T05:15:09.448Z,7.05
2023-01-10T05:17:39.999Z,5.53
2023-01-10T05:20:09.215Z,7.35
2023-01-10T05:22:37.112Z,7.35
2023-01-10T05:25:06.070Z,6.90
2023-01-10T05:27:34.061Z,9.30
2023-01-10T05:30:02.416Z,8.82
2023-01-10T05:32:31.281Z,7.75
2023-01-10T05:35:00.641Z,6.65
2023-01-10T05:37:28.773Z,7.40
2023-01-10T05:39:56.999Z,9.68
2023-01-10T05:42:24.956Z,7.88
2023-01-10T05:44:52.939Z,6.07
2023-01-10T05:47:21.369Z,8.13
2023-01-10T05:49:49.315Z,7.13
2023-01-10T05:52:18.638Z,8.38
2023-01-10T05:54:47.115Z,9.07
2023-01-10T05:57:15.262Z,11.40
2023-01-10T05:59:43.419Z,7.30
2023-01-10T06:02:12.235Z,7.78
2023-01-10T06:04:40.287Z,7.82
2023-01-10T06:07:08.212Z,8.18
2023-01-10T06:09:37.811Z,8.35
2023-01-10T06:12:06.343Z,7.47
2023-01-10T06:14:34.318Z,8.15
2023-01-10T06:17:02.626Z,5.90
2023-01-10T06:19:30.454Z,6.85
2023-01-10T06:21:58.378Z,8.40
2023-01-10T06:24:26.512Z,8.93
2023-01-10T06:26:55.882Z,7.82
2023-01-10T06:29:23.918Z,6.32
2023-01-10T06:31:52.358Z,7.70
2023-01-10T06:34:20.498Z,10.45
2023-01-10T06:36:48.899Z,12.23
2023-01-10T06:39:17.728Z,7.88
2023-01-10T06:41:45.797Z,10.73
2023-01-10T06:44:15.321Z,8.70
2023-01-10T06:46:44.079Z,9.63
2023-01-10T06:49:12.628Z,6.25
2023-01-10T06:51:40.879Z,7.07
2023-01-10T06:54:09.167Z,8.35
2023-01-10T06:56:37.065Z,8.35
2023-01-10T06:59:06.659Z,7.70
2023-01-10T07:01:37.168Z,7.53
2023-01-10T07:04:05.727Z,7.90
2023-01-10T07:06:37.884Z,7.15
2023-01-10T07:09:06.976Z,6.93
2023-01-10T07:11:35.223Z,7.47
2023-01-10T07:14:05.354Z,8.20
2023-01-10T07:16:33.452Z,6.45
2023-01-10T07:19:03.062Z,7.60
2023-01-10T07:21:31.267Z,8.38
2023-01-10T07:24:01.566Z,10.40
2023-01-10T07:26:30.296Z,8.23
2023-01-10T07:28:58.848Z,7.65
2023-01-10T07:31:26.853Z,8.23
2023-01-10T07:33:55.249Z,7.55
2023-01-10T07:36:25.094Z,10.10
2023-01-10T07:38:53.063Z,8.77
2023-01-10T07:41:21.124Z,8.35
2023-01-10T07:43:50.199Z,9.90
2023-01-10T07:46:18.412Z,7.85
2023-01-10T07:48:47.040Z,6.60
2023-01-10T07:51:15.030Z,8.23
2023-01-10T07:53:44.345Z,7.43
2023-01-10T07:56:12.351Z,6.70
2023-01-10T07:58:40.901Z,8.52
2023-01-10T08:01:09.160Z,7.07
2023-01-10T08:03:37.784Z,7.20
2023-01-10T08:06:07.727Z,6.85
2023-01-10T08:08:36.287Z,7.50
2023-01-10T08:11:06.322Z,6.63
2023-01-10T08:13:35.053Z,8.23
2023-01-10T08:16:06.723Z,8.85
2023-01-10T08:18:35.239Z,6.45
2023-01-10T08:21:03.163Z,7.50
2023-01-10T08:23:32.464Z,7.38
2023-01-10T08:26:00.775Z,5.70
2023-01-10T08:28:30.246Z,8.13
2023-01-10T08:30:58.443Z,6.88
2023-01-10T08:33:27.834Z,5.80
2023-01-10T08:35:55.878Z,8.35
2023-01-10T08:38:23.918Z,9.27
2023-01-10T08:40:51.815Z,8.40
2023-01-10T08:43:20.398Z,6.85
2023-01-10T08:45:50.106Z,7.80
2023-01-10T08:48:18.106Z,9.13
2023-01-10T08:50:46.293Z,7.63
2023-01-10T08:53:14.818Z,8.15
2023-01-10T08:55:42.670Z,7.82
2023-01-10T08:58:11.817Z,7.80
2023-01-10T09:00:39.731Z,7.68
2023-01-10T09:03:09.608Z,7.40
2023-01-10T09:05:37.584Z,10.07
2023-01-10T09:08:06.411Z,9.82
2023-01-10T09:10:34.263Z,7.00
2023-01-10T09:13:02.373Z,8.68
2023-01-10T09:15:32.351Z,7.32
2023-01-10T09:18:03.073Z,9.18
2023-01-10T09:20:32.880Z,7.90
2023-01-10T09:23:05.831Z,8.05
2023-01-10T09:25:33.776Z,6.97
2023-01-10T09:28:03.978Z,8.40
2023-01-10T09:30:33.105Z,6.38
2023-01-10T09:33:04.473Z,7.97
2023-01-10T09:35:37.036Z,7.70
2023-01-10T09:38:06.805Z,7.38
2023-01-10T09:40:53.289Z,7.15
2023-01-10T09:43:28.957Z,9.15
2023-01-10T09:46:04.740Z,10.50
2023-01-10T09:48:42.441Z,8.23
2023-01-10T09:51:24.514Z,8.38
2023-01-10T09:53:57.881Z,10.15
2023-01-10T09:56:32.740Z,6.55
2023-01-10T09:59:03.090Z,6.45
2023-01-10T10:01:37.090Z,7.78
2023-01-10T10:04:24.381Z,10.13
2023-01-10T10:06:55.131Z,7.45
2023-01-10T10:09:26.548Z,7.90
2023-01-10T10:12:16.188Z,9.35
2023-01-10T10:14:56.731Z,9.88
2023-01-10T10:17:44.789Z,8.77
2023-01-10T10:20:30.581Z,9.25
2023-01-10T10:23:15.827Z,7.03
2023-01-10T10:25:55.868Z,10.23
2023-01-10T10:28:53.824Z,9.43
2023-01-10T10:31:35.206Z,7.82
2023-01-10T10:34:10.782Z,8.32
2023-01-10T10:36:44.293Z,6.35
2023-01-10T10:39:17.897Z,6.00
2023-01-10T10:41:49.589Z,7.75
2023-01-10T10:44:38.084Z,7.35
2023-01-10T10:47:14.834Z,6.25
2023-01-10T10:49:48.615Z,6.45
2023-01-10T10:52:25.045Z,7.63
2023-01-10T10:54:55.160Z,5.65
2023-01-10T10:57:27.333Z,4.65
2023-01-10T10:59:56.050Z,6.38
2023-01-10T11:02:27.881Z,5.72
2023-01-10T11:05:00.654Z,5.70
2023-01-10T11:07:34.118Z,7.38
2023-01-10T11:10:18.823Z,6.05
2023-01-10T11:12:51.082Z,4.80
2023-01-10T11:15:38.037Z,4.18
2023-01-10T11:18:08.383Z,5.97
2023-01-10T11:20:36.502Z,5.63
2023-01-10T11:23:06.114Z,4.82
2023-01-10T11:25:35.360Z,6.57
2023-01-10T11:28:03.502Z,6.05
2023-01-10T11:30:33.366Z,6.65
2023-01-10T11:33:03.826Z,7.85
2023-01-10T11:35:37.356Z,6.95
2023-01-10T11:38:08.276Z,9.15
2023-01-10T11:40:39.723Z,8.20
2023-01-10T11:43:26.782Z,6.68
2023-01-10T11:45:57.842Z,7.57
2023-01-10T11:48:56.279Z,9.77
2023-01-10T11:51:23.720Z,8.07
2023-01-10T11:53:59.019Z,10.02
2023-01-10T11:56:33.123Z,8.80
2023-01-10T11:59:11.741Z,7.43
2023-01-10T12:01:43.324Z,9.05
2023-01-10T12:04:17.797Z,9.57
2023-01-10T12:06:49.264Z,8.52
2023-01-10T12:09:34.079Z,12.23
2023-01-10T12:12:08.369Z,8.52
2023-01-10T12:14:36.414Z,7.55
2023-01-10T12:17:05.557Z,8.30
2023-01-10T12:19:34.264Z,8.23
2023-01-10T12:22:08.824Z,7.28
2023-01-10T12:24:40.911Z,7.32
2023-01-10T12:27:13.652Z,7.53
2023-01-10T12:29:47.087Z,8.40
2023-01-10T12:32:20.653Z,9.52
2023-01-10T12:34:56.177Z,8.35
2023-01-10T12:37:33.638Z,9.77
2023-01-10T12:40:06.918Z,12.02
2023-01-10T12:43:04.753Z,10.40
2023-01-10T12:45:40.063Z,7.13
2023-01-10T12:48:18.654Z,7.47
2023-01-10T12:50:51.492Z,8.98
2023-01-10T12:53:29.822Z,8.23
2023-01-10T12:56:00.846Z,5.68
2023-01-10T12:58:37.604Z,8.55
2023-01-10T13:01:09.109Z,10.88
2023-01-10T13:03:37.379Z,6.72
2023-01-10T13:06:05.678Z,6.57
2023-01-10T13:08:36.861Z,5.95
2023-01-10T13:11:07.809Z,8.05
2023-01-10T13:13:42.430Z,9.23
2023-01-10T13:16:25.196Z,8.68
2023-01-10T13:19:05.083Z,9.60
2023-01-10T13:21:35.521Z,8.68
2023-01-10T13:24:05.727Z,9.65
2023-01-10T13:26:51.147Z,6.85
2023-01-10T13:29:23.150Z,7.97
2023-01-10T13:31:57.392Z,7.05
2023-01-10T13:34:28.294Z,10.73
2023-01-10T13:36:59.828Z,8.73
2023-01-10T13:39:34.021Z,7.72
2023-01-10T13:42:30.683Z,7.20
2023-01-10T13:45:23.170Z,11.02
2023-01-10T13:48:19.222Z,8.25
2023-01-10T13:51:00.027Z,8.75
2023-01-10T13:53:54.916Z,9.55
2023-01-10T13:56:37.975Z,7.20
2023-01-10T13:59:30.931Z,7.15
2023-01-10T14:02:21.513Z,5.82
2023-01-10T14:04:53.044Z,7.72
2023-01-10T14:07:26.834Z,10.38
2023-01-10T14:10:03.870Z,7.22
2023-01-10T14:12:37.178Z,8.85
2023-01-10T14:15:09.312Z,10.25
2023-01-10T14:17:40.624Z,8.75
2023-01-10T14:20:23.081Z,11.25
2023-01-10T14:23:07.380Z,7.22
2023-01-10T14:25:37.382Z,7.88
2023-01-10T14:28:09.344Z,8.52
2023-01-10T14:30:41.174Z,7.65
2023-01-10T14:33:19.556Z,9.05
2023-01-10T14:35:51.453Z,10.45
2023-01-10T14:38:26.191Z,7.40
2023-01-10T14:40:58.479Z,9.43
2023-01-10T14:43:29.879Z,10.55
2023-01-10T14:46:04.852Z,6.95
2023-01-10T14:48:35.881Z,8.48
2023-01-10T14:51:22.153Z,9.25
2023-01-10T14:53:58.439Z,8.55
2023-01-10T14:56:29.012Z,6.97
2023-01-10T14:58:56.950Z,8.93
2023-01-10T15:01:28.523Z,6.40
2023-01-10T15:04:02.958Z,6.88
2023-01-10T15:06:52.601Z,5.40
2023-01-10T15:09:20.889Z,7.18
2023-01-10T15:11:50.321Z,8.68
2023-01-10T15:14:20.776Z,11.13
2023-01-10T15:16:50.143Z,6.38
2023-01-10T15:19:23.317Z,7.18
2023-01-10T15:21:51.825Z,6.90
2023-01-10T15:24:33.050Z,6.68
2023-01-10T15:27:03.235Z,8.55
2023-01-10T15:29:32.185Z,9.93
2023-01-10T15:32:11.439Z,9.93
2023-01-10T15:34:42.316Z,10.93
2023-01-10T15:37:21.037Z,9.50
2023-01-10T15:39:49.987Z,8.07
2023-01-10T15:42:21.665Z,4.78
2023-01-10T15:44:53.861Z,8.55
2023-01-10T15:47:41.670Z,9.80
2023-01-10T15:50:35.638Z,9.70
2023-01-10T15:53:07.526Z,10.00
2023-01-10T15:55:45.993Z,9.68
2023-01-10T15:58:21.185Z,11.60
2023-01-10T16:00:52.556Z,12.00
2023-01-10T16:03:28.248Z,10.50
2023-01-10T16:06:00.925Z,8.02
2023-01-10T16:08:32.697Z,7.75
2023-01-10T16:11:02.350Z,8.70
2023-01-10T16:13:31.685Z,8.00
2023-01-10T16:16:00.704Z,7.38
2023-01-10T16:18:28.779Z,8.75
2023-01-10T16:21:02.914Z,7.35
2023-01-10T16:23:34.521Z,9.55
2023-01-10T16:26:06.028Z,9.63
2023-01-10T16:28:36.291Z,8.63
2023-01-10T16:31:06.582Z,8.85
2023-01-10T16:33:37.255Z,9.48
2023-01-10T16:36:17.293Z,8.75
2023-01-10T16:38:45.925Z,10.93
2023-01-10T16:41:32.824Z,10.35
2023-01-10T16:44:02.279Z,8.70
2023-01-10T16:46:30.941Z,9.77
2023-01-10T16:48:59.034Z,9.77
2023-01-10T16:51:30.707Z,8.02
2023-01-10T16:53:58.641Z,9.30
2023-01-10T16:56:29.188Z,7.82
2023-01-10T16:58:57.992Z,11.45
2023-01-10T17:01:30.021Z,10.00
2023-01-10T17:03:59.286Z,8.90
2023-01-10T17:06:28.826Z,8.10
2023-01-10T17:08:57.047Z,10.73
2023-01-10T17:11:29.864Z,8.48
2023-01-10T17:13:59.128Z,7.93
2023-01-10T17:16:27.144Z,7.53
2023-01-10T17:18:55.107Z,6.22
2023-01-10T17:21:24.155Z,8.27
2023-01-10T17:23:53.635Z,8.80
2023-01-10T17:26:21.701Z,9.13
2023-01-10T17:28:49.903Z,6.93
2023-01-10T17:31:19.831Z,14.00
2023-01-10T17:33:49.433Z,12.32
2023-01-10T17:36:19.436Z,12.43
2023-01-10T17:38:47.693Z,10.65
2023-01-10T17:41:18.165Z,16.05
2023-01-10T17:43:46.861Z,12.90
2023-01-10T17:46:16.668Z,12.43
2023-01-10T17:48:45.268Z,12.20
2023-01-10T17:51:13.508Z,9.75
2023-01-10T17:53:41.984Z,11.55
2023-01-10T17:56:10.307Z,11.10
2023-01-10T17:58:39.978Z,13.40
2023-01-10T18:01:08.193Z,10.77
2023-01-10T18:03:36.524Z,13.25
2023-01-10T18:06:07.677Z,11.85
2023-01-10T18:08:36.954Z,21.13
2023-01-10T18:11:06.963Z,14.75
2023-01-10T18:13:35.199Z,14.35
2023-01-10T18:16:05.457Z,10.85
2023-01-10T18:18:33.543Z,14.68
2023-01-10T18:21:02.336Z,16.60
2023-01-10T18:23:32.207Z,13.75
2023-01-10T18:26:01.651Z,15.93
2023-01-10T18:28:40.407Z,16.90
2023-01-10T18:31:12.974Z,14.07
2023-01-10T18:33:42.129Z,11.23
2023-01-10T18:36:15.579Z,9.88
2023-01-10T18:38:44.480Z,8.48
2023-01-10T18:41:12.723Z,11.98
2023-01-10T18:43:41.030Z,11.80
2023-01-10T18:46:12.151Z,9.95
2023-01-10T18:48:40.348Z,11.90
2023-01-10T18:51:10.351Z,14.38
2023-01-10T18:53:38.709Z,12.27
2023-01-10T18:56:07.734Z,15.70
2023-01-10T18:58:38.594Z,14.45
2023-01-10T19:01:10.340Z,16.55
2023-01-10T19:03:42.966Z,13.50
2023-01-10T19:06:16.730Z,9.07
2023-01-10T19:08:56.111Z,9.43
2023-01-10T19:11:27.007Z,11.07
2023-01-10T19:13:55.547Z,11.23
2023-01-10T19:16:25.460Z,14.55
2023-01-10T19:18:58.881Z,13.73
2023-01-10T19:21:30.261Z,12.00
2023-01-10T19:24:02.888Z,10.13
2023-01-10T19:26:32.335Z,14.43
2023-01-10T19:29:00.396Z,9.05
2023-01-10T19:31:30.462Z,9.00
2023-01-10T19:34:02.273Z,9.25
2023-01-10T19:36:34.728Z,8.85
2023-01-10T19:39:03.286Z,9.90
2023-01-10T19:41:31.237Z,10.55
2023-01-10T19:44:00.826Z,8.45
2023-01-10T19:46:31.588Z,10.85
2023-01-10T19:49:04.820Z,9.45
2023-01-10T19:51:32.787Z,16.52
2023-01-10T19:54:02.713Z,11.40
2023-01-10T19:56:31.253Z,11.52
2023-01-10T19:58:59.787Z,9.60
2023-01-10T20:01:29.678Z,5.68
2023-01-10T20:04:02.367Z,8.57
2023-01-10T20:06:33.564Z,6.07
2023-01-10T20:09:02.126Z,5.10
2023-01-10T20:11:37.429Z,9.82
2023-01-10T20:14:05.974Z,7.93
2023-01-10T20:16:34.227Z,10.02
2023-01-10T20:19:02.204Z,11.55
2023-01-10T20:21:32.087Z,11.02
2023-01-10T20:24:00.384Z,11.93
2023-01-10T20:26:30.527Z,13.23
2023-01-10T20:29:02.820Z,11.85
2023-01-10T20:31:30.995Z,5.25
2023-01-10T20:34:04.945Z,7.72
2023-01-10T20:36:34.326Z,9.10
2023-01-10T20:39:03.050Z,8.55
2023-01-10T20:41:32.610Z,10.18
2023-01-10T20:44:00.906Z,8.35
2023-01-10T20:46:30.854Z,7.40
2023-01-10T20:49:02.391Z,5.68
2023-01-10T20:51:33.531Z,6.75
2023-01-10T20:54:04.499Z,10.80
2023-01-10T20:56:35.196Z,8.15
2023-01-10T20:59:03.824Z,8.20
2023-01-10T21:01:35.206Z,8.00
2023-01-10T21:04:04.955Z,8.98
2023-01-10T21:06:33.385Z,11.02
2023-01-10T21:09:02.900Z,10.55
2023-01-10T21:11:30.967Z,10.43
2023-01-10T21:13:58.938Z,10.15
2023-01-10T21:16:26.949Z,10.57
2023-01-10T21:18:54.877Z,9.15
2023-01-10T21:21:24.304Z,8.07
2023-01-10T21:23:54.939Z,7.50
2023-01-10T21:26:24.958Z,9.45
2023-01-10T21:28:52.927Z,6.97
2023-01-10T21:31:23.594Z,8.15
2023-01-10T21:33:51.919Z,6.90
2023-01-10T21:36:19.987Z,6.30
2023-01-10T21:38:49.119Z,6.75
2023-01-10T21:41:40.248Z,6.10
2023-01-10T21:44:09.781Z,6.00
2023-01-10T21:46:38.041Z,4.57
2023-01-10T21:49:06.903Z,3.80
2023-01-10T21:51:34.791Z,4.63
2023-01-10T21:54:03.100Z,6.53
2023-01-10T21:56:31.915Z,8.25
2023-01-10T21:59:02.472Z,5.93
2023-01-10T22:01:39.608Z,5.57
2023-01-10T22:04:08.460Z,6.07
2023-01-10T22:06:36.864Z,5.70
2023-01-10T22:09:07.000Z,7.05
2023-01-10T22:11:35.169Z,5.28
2023-01-10T22:14:03.378Z,5.38
2023-01-10T22:16:32.055Z,5.65
2023-01-10T22:19:01.464Z,6.03
2023-01-10T22:21:29.765Z,5.38
2023-01-10T22:23:57.945Z,6.43
2023-01-10T22:26:25.804Z,5.47
2023-01-10T22:28:53.680Z,3.53
2023-01-10T22:31:22.174Z,4.80
2023-01-10T22:33:50.180Z,5.45
2023-01-10T22:36:20.482Z,3.95
2023-01-10T22:38:50.505Z,5.03
2023-01-10T22:41:20.902Z,3.83
2023-01-10T22:43:49.220Z,4.97
2023-01-10T22:46:17.414Z,3.50
2023-01-10T22:48:45.596Z,6.05
2023-01-10T22:51:14.170Z,6.63
2023-01-10T22:53:43.826Z,6.28
2023-01-10T22:56:13.510Z,4.25
2023-01-10T22:58:47.923Z,6.50
2023-01-10T23:01:17.350Z,8.10
2023-01-10T23:03:45.989Z,5.47
2023-01-10T23:06:15.608Z,4.18
2023-01-10T23:08:45.777Z,7.65
2023-01-10T23:11:16.708Z,6.30
2023-01-10T23:13:45.230Z,5.18
2023-01-10T23:16:15.073Z,4.38
2023-01-10T23:18:43.258Z,5.03
2023-01-10T23:21:11.275Z,6.28
2023-01-10T23:23:39.148Z,4.78
2023-01-10T23:26:12.080Z,5.60
2023-01-10T23:28:44.953Z,5.95
2023-01-10T23:31:14.415Z,6.53
2023-01-10T23:33:42.726Z,5.25
2023-01-10T23:36:12.312Z,4.93
2023-01-10T23:38:41.116Z,5.82
2023-01-10T23:41:11.137Z,5.90
2023-01-10T23:43:39.414Z,7.80
2023-01-10T23:46:08.431Z,5.20
2023-01-10T23:48:36.474Z,5.43
2023-01-10T23:51:07.702Z,6.97
2023-01-10T23:53:35.947Z,5.00
2023-01-10T23:56:07.470Z,5.28
2023-01-10T23:58:37.415Z,5.60
